Terminal Aerodrome Forecast
Issued by NWS

Home | Current Version | Previous Version | Text Only | Print | Product List | Glossary On
Versions: 1 2 3 4 5 6 7 8 9 10 11 12 13
108
FTUS45 KABQ 220540
TAFSAF
TAF
KSAF 220540Z 2206/2306 15007KT P6SM FEW100
     FM221600 20015G25KT P6SM FEW080
     FM222100 20024G36KT P6SM SCT080
     FM230200 16010G18KT P6SM SCT080=

USA.gov is the U.S. government's official web portal to all federal, state and local government web resources and services.